createdAt,value
2023-02-13T00:00:03.750Z,41.50
2023-02-13T00:01:03.730Z,40.10
2023-02-13T00:02:03.785Z,45.20
2023-02-13T00:03:03.686Z,34.50
2023-02-13T00:04:03.694Z,37.10
2023-02-13T00:05:03.705Z,43.60
2023-02-13T00:06:03.642Z,40.10
2023-02-13T00:07:03.644Z,42.50
2023-02-13T00:08:03.652Z,42.30
2023-02-13T00:09:05.706Z,39.00
2023-02-13T00:10:03.627Z,42.80
2023-02-13T00:11:03.608Z,45.00
2023-02-13T00:12:03.591Z,42.90
2023-02-13T00:13:03.587Z,42.40
2023-02-13T00:14:03.591Z,36.50
2023-02-13T00:15:03.590Z,40.20
2023-02-13T00:16:03.601Z,41.90
2023-02-13T00:17:03.541Z,39.00
2023-02-13T00:18:03.547Z,39.00
2023-02-13T00:19:03.531Z,37.50
2023-02-13T00:20:03.524Z,37.50
2023-02-13T00:21:03.513Z,41.10
2023-02-13T00:22:03.506Z,37.50
2023-02-13T00:23:03.551Z,36.00
2023-02-13T00:24:03.474Z,43.90
2023-02-13T00:25:03.480Z,42.90
2023-02-13T00:26:03.443Z,42.10
2023-02-13T00:27:03.464Z,45.70
2023-02-13T00:28:03.453Z,38.70
2023-02-13T00:29:03.410Z,38.30
2023-02-13T00:30:03.445Z,40.20
2023-02-13T00:31:03.537Z,42.00
2023-02-13T00:32:03.546Z,38.00
2023-02-13T00:33:03.371Z,38.50
2023-02-13T00:34:03.358Z,41.50
2023-02-13T00:35:03.435Z,43.70
2023-02-13T00:36:03.378Z,44.10
2023-02-13T00:37:03.328Z,44.60
2023-02-13T00:38:03.447Z,44.40
2023-02-13T00:39:03.337Z,49.00
2023-02-13T00:40:03.354Z,43.90
2023-02-13T00:41:03.296Z,46.40
2023-02-13T00:42:03.277Z,50.20
2023-02-13T00:43:03.265Z,41.40
2023-02-13T00:44:03.251Z,43.70
2023-02-13T00:45:03.287Z,43.20
2023-02-13T00:46:03.288Z,40.90
2023-02-13T00:47:03.255Z,41.90
2023-02-13T00:48:03.267Z,43.40
2023-02-13T00:49:03.238Z,39.20
2023-02-13T00:50:03.206Z,42.90
2023-02-13T00:51:03.196Z,39.60
2023-02-13T00:52:03.193Z,40.10
2023-02-13T00:53:03.211Z,38.00
2023-02-13T00:54:03.144Z,43.30
2023-02-13T00:55:03.179Z,42.90
2023-02-13T00:56:03.140Z,41.60
2023-02-13T00:57:03.126Z,40.10
2023-02-13T00:58:03.153Z,41.10
2023-02-13T00:59:03.117Z,44.90
2023-02-13T01:00:03.101Z,42.20
2023-02-13T01:01:03.091Z,39.10
2023-02-13T01:02:03.077Z,39.80
2023-02-13T01:03:03.084Z,38.80
2023-02-13T01:04:03.094Z,41.90
2023-02-13T01:05:03.060Z,43.30
2023-02-13T01:06:03.016Z,45.30
2023-02-13T01:07:03.016Z,40.20
2023-02-13T01:08:03.008Z,41.10
2023-02-13T01:09:03.002Z,43.30
2023-02-13T01:10:03.014Z,44.70
2023-02-13T01:11:02.997Z,46.30
2023-02-13T01:12:02.955Z,46.10
2023-02-13T01:13:02.963Z,53.60
2023-02-13T01:14:02.937Z,51.80
2023-02-13T01:15:02.950Z,47.40
2023-02-13T01:16:03.005Z,48.80
2023-02-13T01:17:02.908Z,52.20
2023-02-13T01:18:02.896Z,56.10
2023-02-13T01:19:02.895Z,45.80
2023-02-13T01:20:02.912Z,49.20
2023-02-13T01:21:02.883Z,45.80
2023-02-13T01:22:02.857Z,46.70
2023-02-13T01:23:02.874Z,45.40
2023-02-13T01:24:02.872Z,53.20
2023-02-13T01:25:02.850Z,51.60
2023-02-13T01:26:02.816Z,51.80
2023-02-13T01:27:02.810Z,45.00
2023-02-13T01:28:02.849Z,47.90
2023-02-13T01:29:02.806Z,46.40
2023-02-13T01:30:02.820Z,50.40
2023-02-13T01:31:03.299Z,49.20
2023-02-13T01:32:02.851Z,50.40
2023-02-13T01:33:02.741Z,52.00
2023-02-13T01:34:02.763Z,48.30
2023-02-13T01:35:02.741Z,53.80
2023-02-13T01:36:02.704Z,55.00
2023-02-13T01:37:02.693Z,54.40
2023-02-13T01:38:02.691Z,50.70
2023-02-13T01:39:02.679Z,46.50
2023-02-13T01:40:02.790Z,50.00
2023-02-13T01:41:02.653Z,54.30
2023-02-13T01:42:02.675Z,46.60
2023-02-13T01:43:02.629Z,47.90
2023-02-13T01:44:02.642Z,48.50
2023-02-13T01:45:02.631Z,50.10
2023-02-13T01:46:02.606Z,53.40
2023-02-13T01:47:02.610Z,52.70
2023-02-13T01:48:03.330Z,49.70
2023-02-13T01:49:02.568Z,50.60
2023-02-13T01:50:02.583Z,52.10
2023-02-13T01:51:02.538Z,48.80
2023-02-13T01:52:02.539Z,49.70
2023-02-13T01:53:02.521Z,52.40
2023-02-13T01:54:02.552Z,52.20
2023-02-13T01:55:02.520Z,53.90
2023-02-13T01:56:02.525Z,53.90
2023-02-13T01:57:02.479Z,51.00
2023-02-13T01:58:02.467Z,46.20
2023-02-13T01:59:02.478Z,52.00
2023-02-13T02:00:02.483Z,45.30
2023-02-13T02:01:02.441Z,51.80
2023-02-13T02:02:02.542Z,48.20
2023-02-13T02:03:02.423Z,49.20
2023-02-13T02:04:02.410Z,49.70
2023-02-13T02:05:02.420Z,51.50
2023-02-13T02:06:02.380Z,50.30
2023-02-13T02:07:02.381Z,51.20
2023-02-13T02:08:02.363Z,51.80
2023-02-13T02:09:02.370Z,53.00
2023-02-13T02:10:02.390Z,55.40
2023-02-13T02:11:02.330Z,48.90
2023-02-13T02:12:02.336Z,51.30
2023-02-13T02:13:02.319Z,49.90
2023-02-13T02:14:02.303Z,55.80
2023-02-13T02:15:10.130Z,49.30
2023-02-13T02:16:02.302Z,58.30
2023-02-13T02:17:02.268Z,52.40
2023-02-13T02:18:02.263Z,53.60
2023-02-13T02:19:02.269Z,55.70
2023-02-13T02:20:02.242Z,58.50
2023-02-13T02:21:02.251Z,55.30
2023-02-13T02:22:02.220Z,50.60
2023-02-13T02:23:02.223Z,53.80
2023-02-13T02:24:02.196Z,53.40
2023-02-13T02:25:02.240Z,54.50
2023-02-13T02:26:02.213Z,53.00
2023-02-13T02:27:02.176Z,57.40
2023-02-13T02:28:02.213Z,52.40
2023-02-13T02:29:02.146Z,58.10
2023-02-13T02:30:02.157Z,55.10
2023-02-13T02:31:02.345Z,58.00
2023-02-13T02:32:02.128Z,54.30
2023-02-13T02:33:02.102Z,56.50
2023-02-13T02:34:02.103Z,55.50
2023-02-13T02:35:02.131Z,54.30
2023-02-13T02:36:02.111Z,56.50
2023-02-13T02:37:02.069Z,54.00
2023-02-13T02:38:02.069Z,53.50
2023-02-13T02:39:02.057Z,51.50
2023-02-13T02:40:02.048Z,53.80
2023-02-13T02:41:02.056Z,52.80
2023-02-13T02:42:02.025Z,57.90
2023-02-13T02:43:02.003Z,57.80
2023-02-13T02:44:02.014Z,53.70
2023-02-13T02:45:01.975Z,56.10
2023-02-13T02:46:01.994Z,61.80
2023-02-13T02:47:01.970Z,65.00
2023-02-13T02:48:01.948Z,61.70
2023-02-13T02:49:01.938Z,63.70
2023-02-13T02:50:01.955Z,58.90
2023-02-13T02:51:01.946Z,61.70
2023-02-13T02:52:01.919Z,57.80
2023-02-13T02:53:01.889Z,57.50
2023-02-13T02:54:01.904Z,61.40
2023-02-13T02:55:01.877Z,57.70
2023-02-13T02:56:01.880Z,62.10
2023-02-13T02:57:01.849Z,61.10
2023-02-13T02:58:01.834Z,63.20
2023-02-13T02:59:01.819Z,59.40
2023-02-13T03:00:01.838Z,61.00
2023-02-13T03:01:02.004Z,60.00
2023-02-13T03:02:01.795Z,61.10
2023-02-13T03:03:01.788Z,57.70
2023-02-13T03:04:01.816Z,61.70
2023-02-13T03:05:01.789Z,59.00
2023-02-13T03:06:01.771Z,64.40
2023-02-13T03:07:01.768Z,64.60
2023-02-13T03:08:01.742Z,62.70
2023-02-13T03:09:01.734Z,61.40
2023-02-13T03:10:01.707Z,60.50
2023-02-13T03:11:01.711Z,63.20
2023-02-13T03:12:01.699Z,66.20
2023-02-13T03:13:01.670Z,63.70
2023-02-13T03:14:01.665Z,65.70
2023-02-13T03:15:01.657Z,68.20
2023-02-13T03:16:01.701Z,68.20
2023-02-13T03:17:01.623Z,74.00
2023-02-13T03:18:01.618Z,70.40
2023-02-13T03:19:01.625Z,69.20
2023-02-13T03:20:01.602Z,62.10
2023-02-13T03:21:01.603Z,66.60
2023-02-13T03:22:01.586Z,64.30
2023-02-13T03:23:01.566Z,61.60
2023-02-13T03:24:01.573Z,61.10
2023-02-13T03:25:01.552Z,65.30
2023-02-13T03:26:01.568Z,72.10
2023-02-13T03:27:01.545Z,64.20
2023-02-13T03:28:01.547Z,67.80
2023-02-13T03:29:01.521Z,73.00
2023-02-13T03:30:01.512Z,72.90
2023-02-13T03:31:01.648Z,70.40
2023-02-13T03:32:01.592Z,64.20
2023-02-13T03:33:01.457Z,70.20
2023-02-13T03:34:01.452Z,67.60
2023-02-13T03:35:01.455Z,68.50
2023-02-13T03:36:01.458Z,62.50
2023-02-13T03:37:01.426Z,65.40
2023-02-13T03:38:01.423Z,69.60
2023-02-13T03:39:01.410Z,64.70
2023-02-13T03:40:01.407Z,62.50
2023-02-13T03:41:01.399Z,64.30
2023-02-13T03:42:01.374Z,63.30
2023-02-13T03:43:01.361Z,61.40
2023-02-13T03:44:01.355Z,65.10
2023-02-13T03:45:01.332Z,67.50
2023-02-13T03:46:01.407Z,69.80
2023-02-13T03:47:01.319Z,70.80
2023-02-13T03:48:01.307Z,72.00
2023-02-13T03:49:01.288Z,73.90
2023-02-13T03:50:01.282Z,67.90
2023-02-13T03:51:01.266Z,60.70
2023-02-13T03:52:01.291Z,67.80
2023-02-13T03:53:01.250Z,67.60
2023-02-13T03:54:01.244Z,69.50
2023-02-13T03:55:01.245Z,69.50
2023-02-13T03:56:01.221Z,70.20
2023-02-13T03:57:01.224Z,69.50
2023-02-13T03:58:01.201Z,69.40
2023-02-13T03:59:01.188Z,71.20
2023-02-13T04:00:01.194Z,72.60
2023-02-13T04:01:01.294Z,73.30
2023-02-13T04:02:01.238Z,79.90
2023-02-13T04:03:01.144Z,77.30
2023-02-13T04:04:01.138Z,73.10
2023-02-13T04:05:01.118Z,78.20
2023-02-13T04:06:01.125Z,76.60
2023-02-13T04:07:01.124Z,79.40
2023-02-13T04:08:01.119Z,77.60
2023-02-13T04:09:01.080Z,78.20
2023-02-13T04:10:01.073Z,82.00
2023-02-13T04:11:01.055Z,79.60
2023-02-13T04:12:01.075Z,80.60
2023-02-13T04:13:01.032Z,80.00
2023-02-13T04:14:01.044Z,85.80
2023-02-13T04:15:01.010Z,84.60
2023-02-13T04:16:01.014Z,85.90
2023-02-13T04:17:01.063Z,77.00
2023-02-13T04:18:01.003Z,83.00
2023-02-13T04:19:00.972Z,81.30
2023-02-13T04:20:00.977Z,89.40
2023-02-13T04:21:00.946Z,90.20
2023-02-13T04:22:08.639Z,80.60
2023-02-13T04:23:00.927Z,76.00
2023-02-13T04:24:00.919Z,79.30
2023-02-13T04:25:00.907Z,80.00
2023-02-13T04:26:00.898Z,82.40
2023-02-13T04:27:00.906Z,77.80
2023-02-13T04:28:00.936Z,78.30
2023-02-13T04:29:00.872Z,90.10
2023-02-13T04:30:00.863Z,84.40
2023-02-13T04:31:01.394Z,83.80
2023-02-13T04:32:00.930Z,84.50
2023-02-13T04:33:00.836Z,88.70
2023-02-13T04:34:07.296Z,85.90
2023-02-13T04:35:00.806Z,95.50
2023-02-13T04:36:00.798Z,84.80
2023-02-13T04:37:00.808Z,93.50
2023-02-13T04:38:00.791Z,93.20
2023-02-13T04:39:00.763Z,93.10
2023-02-13T04:40:00.756Z,94.50
2023-02-13T04:41:00.748Z,89.00
2023-02-13T04:42:00.790Z,91.90
2023-02-13T04:43:00.727Z,96.80
2023-02-13T04:44:00.728Z,92.60
2023-02-13T04:45:00.732Z,91.60
2023-02-13T04:46:00.723Z,95.40
2023-02-13T04:47:00.700Z,101.20
2023-02-13T04:48:00.672Z,100.70
2023-02-13T04:49:00.653Z,101.70
2023-02-13T04:50:00.652Z,98.20
2023-02-13T04:51:00.653Z,96.60
2023-02-13T04:52:00.654Z,99.00
2023-02-13T04:53:00.620Z,100.70
2023-02-13T04:54:00.607Z,102.10
2023-02-13T04:55:00.607Z,99.30
2023-02-13T04:56:00.591Z,104.10
2023-02-13T04:57:00.597Z,104.20
2023-02-13T04:58:00.580Z,102.10
2023-02-13T04:59:00.576Z,97.30
2023-02-13T05:00:00.555Z,96.30
2023-02-13T05:01:00.686Z,98.20
2023-02-13T05:02:00.548Z,102.00
2023-02-13T05:03:00.523Z,105.00
2023-02-13T05:04:00.531Z,98.00
2023-02-13T05:05:00.501Z,100.00
2023-02-13T05:06:00.487Z,95.80
2023-02-13T05:07:00.490Z,94.70
2023-02-13T05:08:00.473Z,100.30
2023-02-13T05:09:00.444Z,99.20
2023-02-13T05:10:00.434Z,99.30
2023-02-13T05:11:00.611Z,107.50
2023-02-13T05:12:00.442Z,102.80
2023-02-13T05:13:00.400Z,103.40
2023-02-13T05:14:00.413Z,105.80
2023-02-13T05:15:00.387Z,106.70
2023-02-13T05:16:00.425Z,105.30
2023-02-13T05:17:00.404Z,107.00
2023-02-13T05:18:00.370Z,106.40
2023-02-13T05:19:00.338Z,103.90
2023-02-13T05:20:00.352Z,103.60
2023-02-13T05:21:00.327Z,105.00
2023-02-13T05:22:00.333Z,110.40
2023-02-13T05:23:00.327Z,105.00
2023-02-13T05:24:00.294Z,110.30
2023-02-13T05:25:00.279Z,106.00
2023-02-13T05:26:00.269Z,114.10
2023-02-13T05:27:00.276Z,108.20
2023-02-13T05:28:00.380Z,106.50
2023-02-13T05:29:00.238Z,103.60
2023-02-13T05:30:00.244Z,108.60
2023-02-13T05:31:00.818Z,105.10
2023-02-13T05:32:00.453Z,107.10
2023-02-13T05:33:00.193Z,106.90
2023-02-13T05:34:00.198Z,112.00
2023-02-13T05:35:02.089Z,108.50
2023-02-13T05:36:00.181Z,107.40
2023-02-13T05:37:00.180Z,104.40
2023-02-13T05:38:00.138Z,109.30
2023-02-13T05:39:00.132Z,107.40
2023-02-13T05:40:00.133Z,109.80
2023-02-13T05:41:00.140Z,111.20
2023-02-13T05:42:00.146Z,112.40
2023-02-13T05:43:00.101Z,110.90
2023-02-13T05:44:00.105Z,119.10
2023-02-13T05:45:00.086Z,108.20
2023-02-13T05:46:00.133Z,107.60
2023-02-13T05:47:00.058Z,105.20
2023-02-13T05:48:00.118Z,107.70
2023-02-13T05:49:00.033Z,102.80
2023-02-13T05:50:00.020Z,104.00
2023-02-13T05:51:00.017Z,100.80
2023-02-13T05:52:00.001Z,97.60
2023-02-13T05:53:00.031Z,94.90
2023-02-13T05:54:00.005Z,95.20
2023-02-13T05:54:59.973Z,97.10
2023-02-13T05:55:59.960Z,96.30
2023-02-13T05:56:59.990Z,100.20
2023-02-13T05:57:59.964Z,100.30
2023-02-13T05:58:59.922Z,104.90
2023-02-13T05:59:59.919Z,103.90
2023-02-13T06:01:00.186Z,97.20
2023-02-13T06:01:59.884Z,99.80
2023-02-13T06:03:00.027Z,101.90
2023-02-13T06:04:02.687Z,99.80
2023-02-13T06:04:59.887Z,102.60
2023-02-13T06:05:59.855Z,103.10
2023-02-13T06:06:59.834Z,106.40
2023-02-13T06:07:59.846Z,104.70
2023-02-13T06:08:59.820Z,106.80
2023-02-13T06:09:59.799Z,108.00
2023-02-13T06:11:00.134Z,103.70
2023-02-13T06:11:59.789Z,108.70
2023-02-13T06:12:59.814Z,111.80
2023-02-13T06:13:59.756Z,105.00
2023-02-13T06:14:59.797Z,107.40
2023-02-13T06:15:59.838Z,112.50
2023-02-13T06:16:59.754Z,108.20
2023-02-13T06:17:59.763Z,109.30
2023-02-13T06:18:59.743Z,110.70
2023-02-13T06:19:59.696Z,112.00
2023-02-13T06:20:59.865Z,112.10
2023-02-13T06:21:59.673Z,113.90
2023-02-13T06:22:59.698Z,104.70
2023-02-13T06:23:59.654Z,104.30
2023-02-13T06:24:59.651Z,107.00
2023-02-13T06:25:59.657Z,111.00
2023-02-13T06:26:59.630Z,108.60
2023-02-13T06:27:59.807Z,114.10
2023-02-13T06:28:59.808Z,111.10
2023-02-13T06:29:59.589Z,108.70
2023-02-13T06:31:00.250Z,109.10
2023-02-13T06:31:59.633Z,106.30
2023-02-13T06:32:59.588Z,105.10
2023-02-13T06:33:59.555Z,110.00
2023-02-13T06:34:59.545Z,119.70
2023-02-13T06:35:59.530Z,108.20
2023-02-13T06:36:59.535Z,109.70
2023-02-13T06:37:59.527Z,108.20
2023-02-13T06:38:59.516Z,108.20
2023-02-13T06:39:59.492Z,109.00
2023-02-13T06:40:59.891Z,114.60
2023-02-13T06:41:59.498Z,113.30
2023-02-13T06:42:59.516Z,121.80
2023-02-13T06:43:59.452Z,121.50
2023-02-13T06:44:59.442Z,120.00
2023-02-13T06:45:59.422Z,117.20
2023-02-13T06:46:59.543Z,122.50
2023-02-13T06:47:59.433Z,120.10
2023-02-13T06:48:59.433Z,115.80
2023-02-13T06:49:59.390Z,116.50
2023-02-13T06:50:59.711Z,120.80
2023-02-13T06:51:59.362Z,119.80
2023-02-13T06:52:59.393Z,121.90
2023-02-13T06:53:59.356Z,123.70
2023-02-13T06:54:59.329Z,119.10
2023-02-13T06:55:59.324Z,113.50
2023-02-13T06:56:59.334Z,117.50
2023-02-13T06:57:59.358Z,114.70
2023-02-13T06:58:59.302Z,115.80
2023-02-13T06:59:59.295Z,123.20
2023-02-13T07:00:59.656Z,126.70
2023-02-13T07:01:59.259Z,126.10
2023-02-13T07:02:59.332Z,121.10
2023-02-13T07:03:59.281Z,123.70
2023-02-13T07:04:59.245Z,122.20
2023-02-13T07:05:59.215Z,124.00
2023-02-13T07:06:59.213Z,120.90
2023-02-13T07:07:59.228Z,117.40
2023-02-13T07:08:59.239Z,118.10
2023-02-13T07:09:59.172Z,123.20
2023-02-13T07:10:59.515Z,120.90
2023-02-13T07:11:59.153Z,128.20
2023-02-13T07:13:05.801Z,117.00
2023-02-13T07:13:59.128Z,112.30
2023-02-13T07:14:59.134Z,118.20
2023-02-13T07:15:59.146Z,119.80
2023-02-13T07:16:59.118Z,113.10
2023-02-13T07:17:59.115Z,113.10
2023-02-13T07:18:59.100Z,116.40
2023-02-13T07:19:59.094Z,106.30
2023-02-13T07:20:59.257Z,114.60
2023-02-13T07:21:59.045Z,113.40
2023-02-13T07:22:59.109Z,116.50
2023-02-13T07:23:59.016Z,117.10
2023-02-13T07:24:59.025Z,120.70
2023-02-13T07:25:59.007Z,117.10
2023-02-13T07:26:59.005Z,116.00
2023-02-13T07:27:58.980Z,123.00
2023-02-13T07:29:10.545Z,117.20
2023-02-13T07:29:58.981Z,119.10
2023-02-13T07:30:59.354Z,120.70
2023-02-13T07:31:58.982Z,115.60
2023-02-13T07:32:58.964Z,114.70
2023-02-13T07:33:58.942Z,117.70
2023-02-13T07:35:02.399Z,121.10
2023-02-13T07:35:58.907Z,116.70
2023-02-13T07:36:58.903Z,111.10
2023-02-13T07:37:58.879Z,116.10
2023-02-13T07:38:58.899Z,114.20
2023-02-13T07:39:58.856Z,108.00
2023-02-13T07:40:59.267Z,108.30
2023-02-13T07:41:58.858Z,109.60
2023-02-13T07:42:58.831Z,108.10
2023-02-13T07:43:58.844Z,103.60
2023-02-13T07:44:58.857Z,106.50
2023-02-13T07:45:59.119Z,109.00
2023-02-13T07:46:58.892Z,101.30
2023-02-13T07:47:58.777Z,100.30
2023-02-13T07:48:58.807Z,103.80
2023-02-13T07:49:58.767Z,100.50
2023-02-13T07:50:59.049Z,100.10
2023-02-13T07:51:58.762Z,89.30
2023-02-13T07:52:58.763Z,98.40
2023-02-13T07:53:58.743Z,95.90
2023-02-13T07:54:58.732Z,97.40
2023-02-13T07:55:59.054Z,100.40
2023-02-13T07:56:58.691Z,94.30
2023-02-13T07:57:58.680Z,84.90
2023-02-13T07:58:58.789Z,83.10
2023-02-13T07:59:58.650Z,88.90
2023-02-13T08:00:58.651Z,89.40
2023-02-13T08:01:58.710Z,90.30
2023-02-13T08:02:58.634Z,89.60
2023-02-13T08:03:58.649Z,81.00
2023-02-13T08:04:58.660Z,82.40
2023-02-13T08:05:58.918Z,84.00
2023-02-13T08:06:58.586Z,83.90
2023-02-13T08:07:58.591Z,86.90
2023-02-13T08:08:58.586Z,83.60
2023-02-13T08:09:58.549Z,75.90
2023-02-13T08:10:58.556Z,77.20
2023-02-13T08:11:58.553Z,74.90
2023-02-13T08:12:58.556Z,74.60
2023-02-13T08:13:58.535Z,80.80
2023-02-13T08:14:58.512Z,74.90
2023-02-13T08:15:58.854Z,76.70
2023-02-13T08:16:58.469Z,67.20
2023-02-13T08:17:58.478Z,66.50
2023-02-13T08:18:58.492Z,64.80
2023-02-13T08:19:58.465Z,70.00
2023-02-13T08:20:58.456Z,61.80
2023-02-13T08:21:58.469Z,55.60
2023-02-13T08:22:58.428Z,56.60
2023-02-13T08:23:58.434Z,53.50
2023-02-13T08:24:58.425Z,46.70
2023-02-13T08:25:58.647Z,39.50
2023-02-13T08:26:58.364Z,46.20
2023-02-13T08:27:58.348Z,47.90
2023-02-13T08:28:58.368Z,43.20
2023-02-13T08:29:58.345Z,47.70
2023-02-13T08:30:58.434Z,51.30
2023-02-13T08:31:58.350Z,49.50
2023-02-13T08:32:58.299Z,49.50
2023-02-13T08:33:58.305Z,52.90
2023-02-13T08:34:58.288Z,51.10
2023-02-13T08:35:58.580Z,46.10
2023-02-13T08:36:58.268Z,51.10
2023-02-13T08:37:58.257Z,49.60
2023-02-13T08:38:58.274Z,53.00
2023-02-13T08:39:58.223Z,42.70
2023-02-13T08:40:58.437Z,49.00
2023-02-13T08:41:58.200Z,58.10
2023-02-13T08:42:58.208Z,50.20
2023-02-13T08:43:58.206Z,44.80
2023-02-13T08:44:58.872Z,47.50
2023-02-13T08:45:58.694Z,46.50
2023-02-13T08:46:58.165Z,41.80
2023-02-13T08:47:58.170Z,39.00
2023-02-13T08:48:58.178Z,36.10
2023-02-13T08:49:58.124Z,32.50
2023-02-13T08:50:58.113Z,31.80
2023-02-13T08:51:58.101Z,33.20
2023-02-13T08:52:58.095Z,29.40
2023-02-13T08:53:58.076Z,30.30
2023-02-13T08:54:58.102Z,26.50
2023-02-13T08:55:58.527Z,22.30
2023-02-13T08:56:58.784Z,23.30
2023-02-13T08:57:58.046Z,24.70
2023-02-13T08:58:58.027Z,22.80
2023-02-13T08:59:58.057Z,23.50
2023-02-13T09:00:58.029Z,17.20
2023-02-13T09:01:58.021Z,16.80
2023-02-13T09:02:58.075Z,16.80
2023-02-13T09:03:57.979Z,16.50
2023-02-13T09:04:58.011Z,18.80
2023-02-13T09:05:58.388Z,18.50
2023-02-13T09:06:57.950Z,14.20
2023-02-13T09:07:57.924Z,14.80
2023-02-13T09:08:57.925Z,12.60
2023-02-13T09:09:57.929Z,11.90
2023-02-13T09:10:57.913Z,13.90
2023-02-13T09:11:57.903Z,12.50
2023-02-13T09:12:57.877Z,14.80
2023-02-13T09:13:57.867Z,12.60
2023-02-13T09:14:57.895Z,12.00
2023-02-13T09:15:58.272Z,12.20
2023-02-13T09:16:57.927Z,11.60
2023-02-13T09:17:57.861Z,13.90
2023-02-13T09:18:57.819Z,11.20
2023-02-13T09:19:57.860Z,11.70
2023-02-13T09:20:57.823Z,15.10
2023-02-13T09:21:57.797Z,14.20
2023-02-13T09:22:57.839Z,15.50
2023-02-13T09:23:57.763Z,11.60
2023-02-13T09:24:57.806Z,12.20
2023-02-13T09:25:58.022Z,13.60
2023-02-13T09:26:57.750Z,14.10
2023-02-13T09:27:57.752Z,12.50
2023-02-13T09:28:57.745Z,12.70
2023-02-13T09:29:57.731Z,11.40
2023-02-13T09:30:57.787Z,11.70
2023-02-13T09:31:57.795Z,11.90
2023-02-13T09:32:57.670Z,12.70
2023-02-13T09:33:57.664Z,11.20
2023-02-13T09:34:57.688Z,12.70
2023-02-13T09:35:58.026Z,11.30
2023-02-13T09:36:57.650Z,11.00
2023-02-13T09:37:57.625Z,14.10
2023-02-13T09:38:57.660Z,12.30
2023-02-13T09:39:57.614Z,12.80
2023-02-13T09:40:57.589Z,12.80
2023-02-13T09:41:57.569Z,10.80
2023-02-13T09:42:57.589Z,11.40
2023-02-13T09:43:57.563Z,9.60
2023-02-13T09:44:57.584Z,10.60
2023-02-13T09:45:58.010Z,11.40
2023-02-13T09:46:57.535Z,12.70
2023-02-13T09:47:57.525Z,10.10
2023-02-13T09:48:57.530Z,10.70
2023-02-13T09:49:57.539Z,10.50
2023-02-13T09:50:57.482Z,12.40
2023-02-13T09:51:57.523Z,11.60
2023-02-13T09:52:57.465Z,14.60
2023-02-13T09:53:57.453Z,10.40
2023-02-13T09:54:57.471Z,12.40
2023-02-13T09:55:57.773Z,12.10
2023-02-13T09:56:57.419Z,12.60
2023-02-13T09:57:57.428Z,9.30
2023-02-13T09:58:57.427Z,10.00
2023-02-13T09:59:57.414Z,11.00
2023-02-13T10:00:57.387Z,11.70
2023-02-13T10:01:57.512Z,14.10
2023-02-13T10:02:57.394Z,12.70
2023-02-13T10:03:57.360Z,9.30
2023-02-13T10:04:57.341Z,14.40
2023-02-13T10:05:57.870Z,12.00
2023-02-13T10:06:57.310Z,9.20
2023-02-13T10:07:57.310Z,10.80
2023-02-13T10:08:57.284Z,9.60
2023-02-13T10:09:57.286Z,10.70
2023-02-13T10:10:57.301Z,13.70
2023-02-13T10:11:57.297Z,11.00
2023-02-13T10:12:57.239Z,10.80
2023-02-13T10:13:57.274Z,10.70
2023-02-13T10:14:57.246Z,11.80
2023-02-13T10:15:57.532Z,11.90
2023-02-13T10:16:57.199Z,12.20
2023-02-13T10:17:57.198Z,13.80
2023-02-13T10:18:57.181Z,10.70
2023-02-13T10:19:57.184Z,13.70
2023-02-13T10:20:57.207Z,11.20
2023-02-13T10:21:57.160Z,9.70
2023-02-13T10:22:57.142Z,11.50
2023-02-13T10:23:57.135Z,9.30
2023-02-13T10:24:57.154Z,10.10
2023-02-13T10:25:57.718Z,11.40
2023-02-13T10:26:57.160Z,11.00
2023-02-13T10:27:57.183Z,9.60
2023-02-13T10:28:57.089Z,11.60
2023-02-13T10:29:57.085Z,10.30
2023-02-13T10:30:57.379Z,9.10
2023-02-13T10:31:57.218Z,10.90
2023-02-13T10:32:57.036Z,13.20
2023-02-13T10:33:57.048Z,21.10
2023-02-13T10:34:57.022Z,11.80
2023-02-13T10:35:57.447Z,13.10
2023-02-13T10:36:56.996Z,14.90
2023-02-13T10:37:56.991Z,10.50
2023-02-13T10:38:56.991Z,11.40
2023-02-13T10:39:56.975Z,11.70
2023-02-13T10:40:56.993Z,10.60
2023-02-13T10:41:56.955Z,10.40
2023-02-13T10:42:56.961Z,9.70
2023-02-13T10:43:56.936Z,10.60
2023-02-13T10:44:56.937Z,11.20
2023-02-13T10:45:57.349Z,9.90
2023-02-13T10:46:56.979Z,8.70
2023-02-13T10:47:56.889Z,9.70
2023-02-13T10:48:56.878Z,11.80
2023-02-13T10:49:56.893Z,9.70
2023-02-13T10:50:56.889Z,10.70
2023-02-13T10:51:56.891Z,13.10
2023-02-13T10:52:56.843Z,11.70
2023-02-13T10:53:56.838Z,12.10
2023-02-13T10:54:56.807Z,12.00
2023-02-13T10:55:57.233Z,12.60
2023-02-13T10:56:56.789Z,11.90
2023-02-13T10:57:56.799Z,10.60
2023-02-13T10:58:56.771Z,12.20
2023-02-13T10:59:56.797Z,13.20
2023-02-13T11:00:56.770Z,12.80
2023-02-13T11:01:56.794Z,16.00
2023-02-13T11:02:56.724Z,12.00
2023-02-13T11:03:56.874Z,12.10
2023-02-13T11:04:56.707Z,11.70
2023-02-13T11:05:57.273Z,12.20
2023-02-13T11:06:56.700Z,11.20
2023-02-13T11:07:56.684Z,9.70
2023-02-13T11:08:56.667Z,15.80
2023-02-13T11:09:56.669Z,12.30
2023-02-13T11:10:56.681Z,12.40
2023-02-13T11:11:56.654Z,13.50
2023-02-13T11:12:56.614Z,11.40
2023-02-13T11:13:56.611Z,12.80
2023-02-13T11:14:56.598Z,13.60
2023-02-13T11:15:57.169Z,11.60
2023-02-13T11:16:56.602Z,12.80
2023-02-13T11:17:56.573Z,11.80
2023-02-13T11:18:56.551Z,13.80
2023-02-13T11:19:56.576Z,11.40
2023-02-13T11:20:56.553Z,12.10
2023-02-13T11:21:56.528Z,15.60
2023-02-13T11:22:56.515Z,11.40
2023-02-13T11:23:56.510Z,14.10
2023-02-13T11:24:56.496Z,11.80
2023-02-13T11:25:56.897Z,12.90
2023-02-13T11:27:02.958Z,10.60
2023-02-13T11:28:02.973Z,12.20
2023-02-13T11:29:02.983Z,14.90
2023-02-13T11:29:56.438Z,11.60
2023-02-13T11:30:56.538Z,11.30
2023-02-13T11:31:56.535Z,12.30
2023-02-13T11:32:56.410Z,13.00
2023-02-13T11:33:58.629Z,12.90
2023-02-13T11:34:56.417Z,13.20
2023-02-13T11:35:56.685Z,13.50
2023-02-13T11:36:56.389Z,13.40
2023-02-13T11:37:56.381Z,14.00
2023-02-13T11:38:56.356Z,11.00
2023-02-13T11:39:56.342Z,12.40
2023-02-13T11:40:56.345Z,13.60
2023-02-13T11:41:56.345Z,13.50
2023-02-13T11:42:56.379Z,14.70
2023-02-13T11:43:56.296Z,18.20
2023-02-13T11:44:56.280Z,16.20
2023-02-13T11:45:56.697Z,15.10
2023-02-13T11:46:56.335Z,14.80
2023-02-13T11:47:56.259Z,13.90
2023-02-13T11:48:56.250Z,16.10
2023-02-13T11:49:56.238Z,13.60
2023-02-13T11:50:56.246Z,13.70
2023-02-13T11:51:56.237Z,15.80
2023-02-13T11:52:56.202Z,16.20
2023-02-13T11:53:56.195Z,15.90
2023-02-13T11:54:56.186Z,18.50
2023-02-13T11:55:56.472Z,14.20
2023-02-13T11:57:05.104Z,14.90
2023-02-13T11:57:56.168Z,19.80
2023-02-13T11:58:56.214Z,16.20
2023-02-13T11:59:56.140Z,16.50
2023-02-13T12:00:56.123Z,18.10
2023-02-13T12:01:56.166Z,19.20
2023-02-13T12:02:56.260Z,20.40
2023-02-13T12:03:56.133Z,17.00
2023-02-13T12:04:56.084Z,18.10
2023-02-13T12:05:56.499Z,17.30
2023-02-13T12:06:56.102Z,15.80
2023-02-13T12:07:56.096Z,18.30
2023-02-13T12:08:56.067Z,17.70
2023-02-13T12:09:56.057Z,23.40
2023-02-13T12:10:56.020Z,21.20
2023-02-13T12:11:56.037Z,18.10
2023-02-13T12:12:56.003Z,18.60
2023-02-13T12:13:55.989Z,16.90
2023-02-13T12:14:56.000Z,18.90
2023-02-13T12:15:56.511Z,20.20
2023-02-13T12:16:56.021Z,15.10
2023-02-13T12:17:55.965Z,20.20
2023-02-13T12:18:55.961Z,16.90
2023-02-13T12:19:55.942Z,13.80
2023-02-13T12:20:56.351Z,17.50
2023-02-13T12:21:55.948Z,19.20
2023-02-13T12:22:55.910Z,16.40
2023-02-13T12:23:55.895Z,19.30
2023-02-13T12:24:55.875Z,16.50
2023-02-13T12:25:55.955Z,18.40
2023-02-13T12:26:55.884Z,16.10
2023-02-13T12:27:55.850Z,15.70
2023-02-13T12:28:55.872Z,28.00
2023-02-13T12:29:55.837Z,16.10
2023-02-13T12:30:55.910Z,18.70
2023-02-13T12:31:55.927Z,13.90
2023-02-13T12:32:55.827Z,17.10
2023-02-13T12:33:55.789Z,17.90
2023-02-13T12:34:55.780Z,15.50
2023-02-13T12:35:55.773Z,16.90
2023-02-13T12:36:55.773Z,11.40
2023-02-13T12:37:55.742Z,18.00
2023-02-13T12:38:55.741Z,14.80
2023-02-13T12:39:55.723Z,16.30
2023-02-13T12:40:56.271Z,16.20
2023-02-13T12:41:55.734Z,15.30
2023-02-13T12:42:55.693Z,13.30
2023-02-13T12:43:55.709Z,14.60
2023-02-13T12:44:55.673Z,16.00
2023-02-13T12:45:55.744Z,12.80
2023-02-13T12:46:55.651Z,12.70